Terminal Aerodrome Forecast
Issued by NWS Tuscon, AZ

Home | Current Version | Previous Version | Text Only | Print | Product List | Glossary On
Versions: 1 2 3 4 5 6 7 8 9 10 11 12 13
546
FTUS45 KTWC 201127
TAFTUS
TAF
KTUS 201127Z 2012/2112 14006KT P6SM SKC
     FM201500 19008KT P6SM SCT120 BKN200
     FM201900 26012G20KT P6SM VCSH FEW050 BKN080
     FM202200 30011G18KT P6SM -SHRA SCT040 BKN080
     FM210200 27014KT P6SM VCSH FEW040 SCT100
     FM210700 28005KT P6SM SCT100=

USA.gov is the U.S. government's official web portal to all federal, state and local government web resources and services.